sensor_id;sensor_type;location;lat;lon;timestamp;P1;durP1;ratioP1;P2;durP2;ratioP2
76495;SDS011;65329;52.544;4.662;2023-11-21T00:02:22;5.18;;;1.63;;
76495;SDS011;65329;52.544;4.662;2023-11-21T00:04:50;10.90;;;1.88;;
76495;SDS011;65329;52.544;4.662;2023-11-21T00:07:17;6.80;;;1.35;;
76495;SDS011;65329;52.544;4.662;2023-11-21T00:09:44;5.47;;;1.33;;
76495;SDS011;65329;52.544;4.662;2023-11-21T00:12:11;9.85;;;1.98;;
76495;SDS011;65329;52.544;4.662;2023-11-21T00:14:38;9.88;;;1.65;;
76495;SDS011;65329;52.544;4.662;2023-11-21T00:17:05;4.18;;;1.48;;
76495;SDS011;65329;52.544;4.662;2023-11-21T00:19:33;4.15;;;1.23;;
76495;SDS011;65329;52.544;4.662;2023-11-21T00:22:01;6.32;;;1.33;;
76495;SDS011;65329;52.544;4.662;2023-11-21T00:24:28;5.28;;;1.23;;
76495;SDS011;65329;52.544;4.662;2023-11-21T00:26:55;2.83;;;0.77;;
76495;SDS011;65329;52.544;4.662;2023-11-21T00:29:22;3.92;;;1.10;;
76495;SDS011;65329;52.544;4.662;2023-11-21T00:31:50;5.88;;;1.27;;
76495;SDS011;65329;52.544;4.662;2023-11-21T00:34:17;2.83;;;1.23;;
76495;SDS011;65329;52.544;4.662;2023-11-21T00:36:44;1.90;;;1.23;;
76495;SDS011;65329;52.544;4.662;2023-11-21T00:39:11;5.72;;;1.35;;
76495;SDS011;65329;52.544;4.662;2023-11-21T00:41:39;3.17;;;1.10;;
76495;SDS011;65329;52.544;4.662;2023-11-21T00:44:06;3.85;;;1.40;;
76495;SDS011;65329;52.544;4.662;2023-11-21T00:46:33;7.57;;;1.42;;
76495;SDS011;65329;52.544;4.662;2023-11-21T00:49:00;4.35;;;1.00;;
76495;SDS011;65329;52.544;4.662;2023-11-21T00:51:27;5.65;;;1.38;;
76495;SDS011;65329;52.544;4.662;2023-11-21T00:53:54;4.60;;;1.15;;
76495;SDS011;65329;52.544;4.662;2023-11-21T00:56:20;7.18;;;1.65;;
76495;SDS011;65329;52.544;4.662;2023-11-21T00:58:49;7.05;;;1.80;;
76495;SDS011;65329;52.544;4.662;2023-11-21T01:01:19;4.55;;;1.55;;
76495;SDS011;65329;52.544;4.662;2023-11-21T01:03:47;5.03;;;1.35;;
76495;SDS011;65329;52.544;4.662;2023-11-21T01:06:14;7.70;;;1.95;;
76495;SDS011;65329;52.544;4.662;2023-11-21T01:08:43;7.35;;;1.15;;
76495;SDS011;65329;52.544;4.662;2023-11-21T01:11:11;4.15;;;1.40;;
76495;SDS011;65329;52.544;4.662;2023-11-21T01:13:39;4.20;;;1.55;;
76495;SDS011;65329;52.544;4.662;2023-11-21T01:16:07;2.80;;;1.20;;
76495;SDS011;65329;52.544;4.662;2023-11-21T01:18:36;4.18;;;1.42;;
76495;SDS011;65329;52.544;4.662;2023-11-21T01:21:05;4.22;;;1.35;;
76495;SDS011;65329;52.544;4.662;2023-11-21T01:23:32;6.75;;;1.58;;
76495;SDS011;65329;52.544;4.662;2023-11-21T01:25:59;4.32;;;1.33;;
76495;SDS011;65329;52.544;4.662;2023-11-21T01:28:25;2.72;;;1.13;;
76495;SDS011;65329;52.544;4.662;2023-11-21T01:30:53;2.38;;;0.98;;
76495;SDS011;65329;52.544;4.662;2023-11-21T01:33:23;1.35;;;0.80;;
76495;SDS011;65329;52.544;4.662;2023-11-21T01:35:51;3.20;;;0.95;;
76495;SDS011;65329;52.544;4.662;2023-11-21T01:38:21;5.30;;;1.38;;
76495;SDS011;65329;52.544;4.662;2023-11-21T01:40:48;4.95;;;1.60;;
76495;SDS011;65329;52.544;4.662;2023-11-21T01:43:16;2.97;;;1.13;;
76495;SDS011;65329;52.544;4.662;2023-11-21T01:45:43;3.92;;;1.23;;
76495;SDS011;65329;52.544;4.662;2023-11-21T01:48:12;2.13;;;1.40;;
76495;SDS011;65329;52.544;4.662;2023-11-21T01:50:40;3.95;;;1.30;;
76495;SDS011;65329;52.544;4.662;2023-11-21T01:53:08;4.20;;;1.20;;
76495;SDS011;65329;52.544;4.662;2023-11-21T01:55:35;4.40;;;1.55;;
76495;SDS011;65329;52.544;4.662;2023-11-21T01:58:02;5.10;;;1.50;;
76495;SDS011;65329;52.544;4.662;2023-11-21T02:00:30;2.83;;;1.00;;
76495;SDS011;65329;52.544;4.662;2023-11-21T02:02:57;2.78;;;1.15;;
76495;SDS011;65329;52.544;4.662;2023-11-21T02:05:26;2.47;;;1.10;;
76495;SDS011;65329;52.544;4.662;2023-11-21T02:07:53;4.35;;;1.50;;
76495;SDS011;65329;52.544;4.662;2023-11-21T02:10:20;3.90;;;1.48;;
76495;SDS011;65329;52.544;4.662;2023-11-21T02:12:51;1.40;;;0.90;;
76495;SDS011;65329;52.544;4.662;2023-11-21T02:15:18;5.82;;;1.77;;
76495;SDS011;65329;52.544;4.662;2023-11-21T02:17:53;3.22;;;1.00;;
76495;SDS011;65329;52.544;4.662;2023-11-21T02:20:21;2.95;;;1.08;;
76495;SDS011;65329;52.544;4.662;2023-11-21T02:22:55;5.82;;;1.10;;
76495;SDS011;65329;52.544;4.662;2023-11-21T02:25:27;3.13;;;1.02;;
76495;SDS011;65329;52.544;4.662;2023-11-21T02:28:00;2.63;;;0.95;;
76495;SDS011;65329;52.544;4.662;2023-11-21T02:30:29;2.13;;;0.93;;
76495;SDS011;65329;52.544;4.662;2023-11-21T02:32:59;5.90;;;1.08;;
76495;SDS011;65329;52.544;4.662;2023-11-21T02:35:28;2.35;;;0.50;;
76495;SDS011;65329;52.544;4.662;2023-11-21T02:37:58;1.40;;;0.60;;
76495;SDS011;65329;52.544;4.662;2023-11-21T02:40:25;1.92;;;0.30;;
76495;SDS011;65329;52.544;4.662;2023-11-21T02:42:53;1.83;;;0.50;;
76495;SDS011;65329;52.544;4.662;2023-11-21T02:45:21;0.55;;;0.20;;
76495;SDS011;65329;52.544;4.662;2023-11-21T02:47:50;1.45;;;0.40;;
76495;SDS011;65329;52.544;4.662;2023-11-21T02:50:16;1.52;;;0.40;;
76495;SDS011;65329;52.544;4.662;2023-11-21T02:52:45;0.90;;;0.30;;
76495;SDS011;65329;52.544;4.662;2023-11-21T02:55:13;3.03;;;0.45;;
76495;SDS011;65329;52.544;4.662;2023-11-21T02:57:40;2.47;;;0.40;;
76495;SDS011;65329;52.544;4.662;2023-11-21T03:00:07;0.90;;;0.30;;
76495;SDS011;65329;52.544;4.662;2023-11-21T03:02:34;0.45;;;0.30;;
76495;SDS011;65329;52.544;4.662;2023-11-21T03:05:06;0.57;;;0.38;;
76495;SDS011;65329;52.544;4.662;2023-11-21T03:07:38;1.45;;;0.10;;
76495;SDS011;65329;52.544;4.662;2023-11-21T03:10:07;0.45;;;0.30;;
76495;SDS011;65329;52.544;4.662;2023-11-21T03:12:38;0.68;;;0.30;;
76495;SDS011;65329;52.544;4.662;2023-11-21T03:15:06;0.77;;;0.40;;
76495;SDS011;65329;52.544;4.662;2023-11-21T03:17:34;1.17;;;0.40;;
76495;SDS011;65329;52.544;4.662;2023-11-21T03:20:02;0.90;;;0.40;;
76495;SDS011;65329;52.544;4.662;2023-11-21T03:22:31;1.55;;;0.70;;
76495;SDS011;65329;52.544;4.662;2023-11-21T03:24:58;2.40;;;0.75;;
76495;SDS011;65329;52.544;4.662;2023-11-21T03:27:26;1.20;;;0.82;;
76495;SDS011;65329;52.544;4.662;2023-11-21T03:29:52;1.85;;;0.82;;
76495;SDS011;65329;52.544;4.662;2023-11-21T03:32:20;0.93;;;0.50;;
76495;SDS011;65329;52.544;4.662;2023-11-21T03:34:54;0.65;;;0.40;;
76495;SDS011;65329;52.544;4.662;2023-11-21T03:37:25;3.38;;;0.40;;
76495;SDS011;65329;52.544;4.662;2023-11-21T03:39:55;2.78;;;0.40;;
76495;SDS011;65329;52.544;4.662;2023-11-21T03:42:23;0.70;;;0.35;;
76495;SDS011;65329;52.544;4.662;2023-11-21T03:44:53;2.22;;;1.05;;
76495;SDS011;65329;52.544;4.662;2023-11-21T03:47:20;3.70;;;0.47;;
76495;SDS011;65329;52.544;4.662;2023-11-21T03:49:47;2.22;;;0.50;;
76495;SDS011;65329;52.544;4.662;2023-11-21T03:52:15;1.90;;;0.60;;
76495;SDS011;65329;52.544;4.662;2023-11-21T03:54:43;0.93;;;0.55;;
76495;SDS011;65329;52.544;4.662;2023-11-21T03:57:10;1.13;;;0.40;;
76495;SDS011;65329;52.544;4.662;2023-11-21T03:59:40;1.98;;;0.30;;
76495;SDS011;65329;52.544;4.662;2023-11-21T04:02:08;2.13;;;1.05;;
76495;SDS011;65329;52.544;4.662;2023-11-21T04:04:37;1.17;;;0.50;;
76495;SDS011;65329;52.544;4.662;2023-11-21T04:07:04;1.20;;;0.30;;
76495;SDS011;65329;52.544;4.662;2023-11-21T04:09:31;1.60;;;0.80;;
76495;SDS011;65329;52.544;4.662;2023-11-21T04:11:58;2.88;;;0.77;;
76495;SDS011;65329;52.544;4.662;2023-11-21T04:14:25;4.25;;;0.98;;
76495;SDS011;65329;52.544;4.662;2023-11-21T04:16:52;1.95;;;0.70;;
76495;SDS011;65329;52.544;4.662;2023-11-21T04:19:20;1.75;;;0.70;;
76495;SDS011;65329;52.544;4.662;2023-11-21T04:21:47;1.92;;;0.60;;
76495;SDS011;65329;52.544;4.662;2023-11-21T04:24:14;1.83;;;0.55;;
76495;SDS011;65329;52.544;4.662;2023-11-21T04:26:41;3.22;;;0.60;;
76495;SDS011;65329;52.544;4.662;2023-11-21T04:29:08;1.42;;;0.98;;
76495;SDS011;65329;52.544;4.662;2023-11-21T04:31:35;1.23;;;0.60;;
76495;SDS011;65329;52.544;4.662;2023-11-21T04:34:01;5.13;;;0.95;;
76495;SDS011;65329;52.544;4.662;2023-11-21T04:36:30;2.15;;;0.95;;
76495;SDS011;65329;52.544;4.662;2023-11-21T04:38:57;2.22;;;0.63;;
76495;SDS011;65329;52.544;4.662;2023-11-21T04:41:25;2.42;;;0.88;;
76495;SDS011;65329;52.544;4.662;2023-11-21T04:43:51;4.25;;;1.40;;
76495;SDS011;65329;52.544;4.662;2023-11-21T04:46:18;2.20;;;0.60;;
76495;SDS011;65329;52.544;4.662;2023-11-21T04:48:45;1.67;;;1.00;;
76495;SDS011;65329;52.544;4.662;2023-11-21T04:51:13;3.70;;;1.00;;
76495;SDS011;65329;52.544;4.662;2023-11-21T04:53:40;2.92;;;1.23;;
76495;SDS011;65329;52.544;4.662;2023-11-21T04:56:07;4.47;;;1.40;;
76495;SDS011;65329;52.544;4.662;2023-11-21T04:58:34;5.40;;;1.40;;
76495;SDS011;65329;52.544;4.662;2023-11-21T05:01:02;3.63;;;1.30;;
76495;SDS011;65329;52.544;4.662;2023-11-21T05:06:00;2.30;;;1.08;;
76495;SDS011;65329;52.544;4.662;2023-11-21T05:08:27;4.03;;;1.27;;
76495;SDS011;65329;52.544;4.662;2023-11-21T05:10:54;5.90;;;1.52;;
76495;SDS011;65329;52.544;4.662;2023-11-21T05:13:21;5.13;;;1.85;;
76495;SDS011;65329;52.544;4.662;2023-11-21T05:15:49;2.67;;;1.25;;
76495;SDS011;65329;52.544;4.662;2023-11-21T05:18:16;8.70;;;2.33;;
76495;SDS011;65329;52.544;4.662;2023-11-21T05:20:43;7.13;;;2.00;;
76495;SDS011;65329;52.544;4.662;2023-11-21T05:23:09;6.10;;;1.67;;
76495;SDS011;65329;52.544;4.662;2023-11-21T05:25:36;8.50;;;1.70;;
76495;SDS011;65329;52.544;4.662;2023-11-21T05:28:06;7.50;;;1.58;;
76495;SDS011;65329;52.544;4.662;2023-11-21T05:30:33;6.82;;;1.95;;
76495;SDS011;65329;52.544;4.662;2023-11-21T05:33:00;5.75;;;2.00;;
76495;SDS011;65329;52.544;4.662;2023-11-21T05:35:27;6.90;;;1.75;;
76495;SDS011;65329;52.544;4.662;2023-11-21T05:37:54;8.95;;;2.20;;
76495;SDS011;65329;52.544;4.662;2023-11-21T05:40:21;8.35;;;2.70;;
76495;SDS011;65329;52.544;4.662;2023-11-21T05:42:50;8.95;;;2.97;;
76495;SDS011;65329;52.544;4.662;2023-11-21T05:45:18;8.85;;;2.40;;
76495;SDS011;65329;52.544;4.662;2023-11-21T05:47:45;4.78;;;2.20;;
76495;SDS011;65329;52.544;4.662;2023-11-21T05:50:14;8.95;;;4.00;;
76495;SDS011;65329;52.544;4.662;2023-11-21T05:52:43;6.95;;;2.90;;
76495;SDS011;65329;52.544;4.662;2023-11-21T05:55:12;6.35;;;3.53;;
76495;SDS011;65329;52.544;4.662;2023-11-21T05:57:40;12.05;;;4.72;;
76495;SDS011;65329;52.544;4.662;2023-11-21T06:00:09;10.43;;;3.88;;
76495;SDS011;65329;52.544;4.662;2023-11-21T06:02:52;8.77;;;3.40;;
76495;SDS011;65329;52.544;4.662;2023-11-21T06:05:22;4.93;;;2.38;;
76495;SDS011;65329;52.544;4.662;2023-11-21T06:07:51;5.30;;;2.20;;
76495;SDS011;65329;52.544;4.662;2023-11-21T06:10:21;6.20;;;1.90;;
76495;SDS011;65329;52.544;4.662;2023-11-21T06:12:51;5.00;;;2.25;;
76495;SDS011;65329;52.544;4.662;2023-11-21T06:15:18;3.90;;;1.98;;
76495;SDS011;65329;52.544;4.662;2023-11-21T06:17:51;7.85;;;1.98;;
76495;SDS011;65329;52.544;4.662;2023-11-21T06:20:20;4.38;;;3.15;;
76495;SDS011;65329;52.544;4.662;2023-11-21T06:22:48;6.05;;;2.70;;
76495;SDS011;65329;52.544;4.662;2023-11-21T06:25:17;6.40;;;3.13;;
76495;SDS011;65329;52.544;4.662;2023-11-21T06:27:44;5.82;;;2.65;;
76495;SDS011;65329;52.544;4.662;2023-11-21T06:30:13;7.95;;;3.85;;
76495;SDS011;65329;52.544;4.662;2023-11-21T06:32:42;6.25;;;2.53;;
76495;SDS011;65329;52.544;4.662;2023-11-21T06:35:13;6.63;;;2.95;;
76495;SDS011;65329;52.544;4.662;2023-11-21T06:37:43;5.70;;;2.72;;
76495;SDS011;65329;52.544;4.662;2023-11-21T06:40:16;7.95;;;2.65;;
76495;SDS011;65329;52.544;4.662;2023-11-21T06:42:45;8.88;;;2.83;;
76495;SDS011;65329;52.544;4.662;2023-11-21T06:45:13;8.85;;;3.33;;
76495;SDS011;65329;52.544;4.662;2023-11-21T06:47:41;10.77;;;2.88;;
76495;SDS011;65329;52.544;4.662;2023-11-21T06:50:09;6.80;;;3.00;;
76495;SDS011;65329;52.544;4.662;2023-11-21T06:52:36;8.27;;;2.65;;
76495;SDS011;65329;52.544;4.662;2023-11-21T06:55:03;8.13;;;3.28;;
76495;SDS011;65329;52.544;4.662;2023-11-21T06:57:31;12.70;;;3.40;;
76495;SDS011;65329;52.544;4.662;2023-11-21T06:59:58;11.43;;;3.58;;
76495;SDS011;65329;52.544;4.662;2023-11-21T07:02:26;9.55;;;2.75;;
76495;SDS011;65329;52.544;4.662;2023-11-21T07:04:53;11.20;;;3.95;;
76495;SDS011;65329;52.544;4.662;2023-11-21T07:07:20;11.77;;;4.63;;
76495;SDS011;65329;52.544;4.662;2023-11-21T07:09:47;12.10;;;3.38;;
76495;SDS011;65329;52.544;4.662;2023-11-21T07:12:15;8.63;;;4.88;;
76495;SDS011;65329;52.544;4.662;2023-11-21T07:14:42;5.88;;;3.90;;
76495;SDS011;65329;52.544;4.662;2023-11-21T07:17:11;8.13;;;3.50;;
76495;SDS011;65329;52.544;4.662;2023-11-21T07:19:38;7.05;;;2.72;;
76495;SDS011;65329;52.544;4.662;2023-11-21T07:22:05;11.05;;;3.03;;
76495;SDS011;65329;52.544;4.662;2023-11-21T07:24:32;6.78;;;2.97;;
76495;SDS011;65329;52.544;4.662;2023-11-21T07:26:59;3.63;;;2.58;;
76495;SDS011;65329;52.544;4.662;2023-11-21T07:29:27;2.22;;;1.15;;
76495;SDS011;65329;52.544;4.662;2023-11-21T07:31:56;2.28;;;0.70;;
76495;SDS011;65329;52.544;4.662;2023-11-21T07:34:23;1.92;;;1.00;;
76495;SDS011;65329;52.544;4.662;2023-11-21T07:36:50;3.58;;;1.35;;
76495;SDS011;65329;52.544;4.662;2023-11-21T07:39:17;2.38;;;1.10;;
76495;SDS011;65329;52.544;4.662;2023-11-21T07:41:44;3.33;;;1.25;;
76495;SDS011;65329;52.544;4.662;2023-11-21T07:44:18;2.92;;;1.23;;
76495;SDS011;65329;52.544;4.662;2023-11-21T07:46:46;3.60;;;1.70;;
76495;SDS011;65329;52.544;4.662;2023-11-21T07:49:14;2.95;;;1.30;;
76495;SDS011;65329;52.544;4.662;2023-11-21T07:51:43;3.35;;;1.70;;
76495;SDS011;65329;52.544;4.662;2023-11-21T07:54:10;4.35;;;2.25;;
76495;SDS011;65329;52.544;4.662;2023-11-21T07:56:37;4.82;;;2.20;;
76495;SDS011;65329;52.544;4.662;2023-11-21T07:59:04;6.45;;;2.90;;
76495;SDS011;65329;52.544;4.662;2023-11-21T08:01:32;5.28;;;3.55;;
76495;SDS011;65329;52.544;4.662;2023-11-21T08:03:59;6.57;;;3.55;;
76495;SDS011;65329;52.544;4.662;2023-11-21T08:06:30;5.72;;;2.58;;
76495;SDS011;65329;52.544;4.662;2023-11-21T08:08:58;6.63;;;2.92;;
76495;SDS011;65329;52.544;4.662;2023-11-21T08:11:25;5.85;;;2.70;;
76495;SDS011;65329;52.544;4.662;2023-11-21T08:13:53;4.57;;;2.88;;
76495;SDS011;65329;52.544;4.662;2023-11-21T08:16:21;7.80;;;2.60;;
76495;SDS011;65329;52.544;4.662;2023-11-21T08:18:48;6.78;;;3.22;;
76495;SDS011;65329;52.544;4.662;2023-11-21T08:21:15;8.98;;;3.65;;
76495;SDS011;65329;52.544;4.662;2023-11-21T08:23:42;7.68;;;3.42;;
76495;SDS011;65329;52.544;4.662;2023-11-21T08:26:09;8.25;;;2.70;;
76495;SDS011;65329;52.544;4.662;2023-11-21T08:28:35;7.05;;;3.38;;
76495;SDS011;65329;52.544;4.662;2023-11-21T08:31:02;5.50;;;2.53;;
76495;SDS011;65329;52.544;4.662;2023-11-21T08:33:31;9.18;;;3.55;;
76495;SDS011;65329;52.544;4.662;2023-11-21T08:35:57;8.70;;;2.72;;
76495;SDS011;65329;52.544;4.662;2023-11-21T08:38:24;7.15;;;3.65;;
76495;SDS011;65329;52.544;4.662;2023-11-21T08:40:51;5.30;;;2.30;;
76495;SDS011;65329;52.544;4.662;2023-11-21T08:43:18;6.50;;;2.13;;
76495;SDS011;65329;52.544;4.662;2023-11-21T08:45:46;5.50;;;3.28;;
76495;SDS011;65329;52.544;4.662;2023-11-21T08:48:13;7.15;;;2.30;;
76495;SDS011;65329;52.544;4.662;2023-11-21T08:50:40;5.38;;;2.30;;
76495;SDS011;65329;52.544;4.662;2023-11-21T08:53:07;7.30;;;3.58;;
76495;SDS011;65329;52.544;4.662;2023-11-21T08:55:34;6.60;;;2.83;;
76495;SDS011;65329;52.544;4.662;2023-11-21T08:58:04;7.63;;;2.40;;
76495;SDS011;65329;52.544;4.662;2023-11-21T09:00:33;4.55;;;2.10;;
76495;SDS011;65329;52.544;4.662;2023-11-21T09:03:01;5.60;;;2.42;;
76495;SDS011;65329;52.544;4.662;2023-11-21T09:05:29;6.85;;;2.53;;
76495;SDS011;65329;52.544;4.662;2023-11-21T09:07:56;4.38;;;1.80;;
76495;SDS011;65329;52.544;4.662;2023-11-21T09:10:23;5.38;;;2.40;;
76495;SDS011;65329;52.544;4.662;2023-11-21T09:12:52;4.90;;;1.80;;
76495;SDS011;65329;52.544;4.662;2023-11-21T09:15:19;3.78;;;2.25;;
76495;SDS011;65329;52.544;4.662;2023-11-21T09:17:47;5.15;;;1.85;;
76495;SDS011;65329;52.544;4.662;2023-11-21T09:20:15;4.63;;;1.80;;
76495;SDS011;65329;52.544;4.662;2023-11-21T09:22:42;6.03;;;1.90;;
76495;SDS011;65329;52.544;4.662;2023-11-21T09:25:11;4.18;;;2.08;;
76495;SDS011;65329;52.544;4.662;2023-11-21T09:27:39;4.72;;;1.98;;
76495;SDS011;65329;52.544;4.662;2023-11-21T09:30:06;2.92;;;1.42;;
76495;SDS011;65329;52.544;4.662;2023-11-21T09:32:39;3.08;;;1.60;;
76495;SDS011;65329;52.544;4.662;2023-11-21T09:35:07;2.58;;;1.52;;
76495;SDS011;65329;52.544;4.662;2023-11-21T09:37:35;3.33;;;2.20;;
76495;SDS011;65329;52.544;4.662;2023-11-21T09:40:05;3.45;;;2.25;;
76495;SDS011;65329;52.544;4.662;2023-11-21T09:42:46;3.10;;;1.73;;
76495;SDS011;65329;52.544;4.662;2023-11-21T09:45:32;5.20;;;1.95;;
76495;SDS011;65329;52.544;4.662;2023-11-21T09:48:01;5.03;;;2.30;;
76495;SDS011;65329;52.544;4.662;2023-11-21T09:50:29;4.55;;;2.40;;
76495;SDS011;65329;52.544;4.662;2023-11-21T09:55:37;6.63;;;2.53;;
76495;SDS011;65329;52.544;4.662;2023-11-21T09:58:07;5.05;;;2.72;;
76495;SDS011;65329;52.544;4.662;2023-11-21T10:00:39;8.18;;;4.35;;
76495;SDS011;65329;52.544;4.662;2023-11-21T10:03:11;8.80;;;4.75;;
76495;SDS011;65329;52.544;4.662;2023-11-21T10:05:38;8.43;;;3.65;;
76495;SDS011;65329;52.544;4.662;2023-11-21T10:08:10;8.20;;;3.95;;
76495;SDS011;65329;52.544;4.662;2023-11-21T10:10:38;7.47;;;3.47;;
76495;SDS011;65329;52.544;4.662;2023-11-21T10:13:11;5.60;;;3.00;;
76495;SDS011;65329;52.544;4.662;2023-11-21T10:15:39;8.73;;;3.92;;
76495;SDS011;65329;52.544;4.662;2023-11-21T10:20:38;5.68;;;3.00;;
76495;SDS011;65329;52.544;4.662;2023-11-21T10:23:05;5.05;;;2.88;;
76495;SDS011;65329;52.544;4.662;2023-11-21T10:25:34;8.15;;;3.10;;
76495;SDS011;65329;52.544;4.662;2023-11-21T10:28:03;5.80;;;3.03;;
76495;SDS011;65329;52.544;4.662;2023-11-21T10:30:37;4.47;;;2.95;;
76495;SDS011;65329;52.544;4.662;2023-11-21T10:33:06;6.68;;;3.53;;
76495;SDS011;65329;52.544;4.662;2023-11-21T10:35:47;5.80;;;3.55;;
76495;SDS011;65329;52.544;4.662;2023-11-21T10:38:18;7.60;;;3.13;;
76495;SDS011;65329;52.544;4.662;2023-11-21T10:40:47;6.60;;;3.38;;
76495;SDS011;65329;52.544;4.662;2023-11-21T10:43:15;6.35;;;3.40;;
76495;SDS011;65329;52.544;4.662;2023-11-21T10:45:47;7.97;;;3.97;;
76495;SDS011;65329;52.544;4.662;2023-11-21T10:48:14;7.85;;;4.03;;
76495;SDS011;65329;52.544;4.662;2023-11-21T10:50:43;5.57;;;3.17;;
76495;SDS011;65329;52.544;4.662;2023-11-21T10:53:11;7.95;;;4.07;;
76495;SDS011;65329;52.544;4.662;2023-11-21T10:55:39;8.13;;;3.53;;
76495;SDS011;65329;52.544;4.662;2023-11-21T10:58:07;8.55;;;3.75;;
76495;SDS011;65329;52.544;4.662;2023-11-21T11:00:36;6.82;;;3.72;;
76495;SDS011;65329;52.544;4.662;2023-11-21T11:03:06;7.15;;;3.55;;
76495;SDS011;65329;52.544;4.662;2023-11-21T11:05:40;5.60;;;3.20;;
76495;SDS011;65329;52.544;4.662;2023-11-21T11:08:20;7.03;;;3.42;;
76495;SDS011;65329;52.544;4.662;2023-11-21T11:10:54;4.70;;;3.10;;
76495;SDS011;65329;52.544;4.662;2023-11-21T11:13:21;6.63;;;3.70;;
76495;SDS011;65329;52.544;4.662;2023-11-21T11:15:49;4.30;;;2.75;;
76495;SDS011;65329;52.544;4.662;2023-11-21T11:18:16;6.97;;;3.15;;
76495;SDS011;65329;52.544;4.662;2023-11-21T11:20:44;6.40;;;3.63;;
76495;SDS011;65329;52.544;4.662;2023-11-21T11:26:20;8.15;;;4.32;;
76495;SDS011;65329;52.544;4.662;2023-11-21T11:32:00;11.52;;;3.80;;
76495;SDS011;65329;52.544;4.662;2023-11-21T11:34:36;7.50;;;4.32;;
76495;SDS011;65329;52.544;4.662;2023-11-21T11:37:30;6.45;;;3.85;;
76495;SDS011;65329;52.544;4.662;2023-11-21T11:39:57;12.45;;;4.93;;
76495;SDS011;65329;52.544;4.662;2023-11-21T11:42:26;9.38;;;4.68;;
76495;SDS011;65329;52.544;4.662;2023-11-21T11:44:53;7.60;;;3.53;;
76495;SDS011;65329;52.544;4.662;2023-11-21T11:47:23;8.20;;;4.45;;
76495;SDS011;65329;52.544;4.662;2023-11-21T11:52:52;6.60;;;3.40;;
76495;SDS011;65329;52.544;4.662;2023-11-21T11:55:22;7.68;;;4.57;;
76495;SDS011;65329;52.544;4.662;2023-11-21T11:57:51;6.55;;;3.70;;
76495;SDS011;65329;52.544;4.662;2023-11-21T12:02:58;9.77;;;4.00;;
76495;SDS011;65329;52.544;4.662;2023-11-21T12:08:00;5.13;;;2.70;;
76495;SDS011;65329;52.544;4.662;2023-11-21T12:10:30;8.80;;;3.67;;
76495;SDS011;65329;52.544;4.662;2023-11-21T12:13:02;5.75;;;3.55;;
76495;SDS011;65329;52.544;4.662;2023-11-21T12:15:34;7.90;;;3.38;;
76495;SDS011;65329;52.544;4.662;2023-11-21T12:18:02;5.18;;;3.05;;
76495;SDS011;65329;52.544;4.662;2023-11-21T12:20:30;7.25;;;3.40;;
76495;SDS011;65329;52.544;4.662;2023-11-21T12:23:00;6.15;;;2.65;;
76495;SDS011;65329;52.544;4.662;2023-11-21T12:25:27;4.53;;;2.85;;
76495;SDS011;65329;52.544;4.662;2023-11-21T12:27:58;6.85;;;3.10;;
76495;SDS011;65329;52.544;4.662;2023-11-21T12:30:26;5.32;;;2.35;;
76495;SDS011;65329;52.544;4.662;2023-11-21T12:32:57;5.40;;;2.47;;
76495;SDS011;65329;52.544;4.662;2023-11-21T12:35:29;6.38;;;3.00;;
76495;SDS011;65329;52.544;4.662;2023-11-21T12:38:00;5.35;;;3.00;;
76495;SDS011;65329;52.544;4.662;2023-11-21T12:40:36;8.32;;;2.85;;
76495;SDS011;65329;52.544;4.662;2023-11-21T12:43:03;7.20;;;2.78;;
76495;SDS011;65329;52.544;4.662;2023-11-21T12:45:31;5.05;;;2.38;;
76495;SDS011;65329;52.544;4.662;2023-11-21T12:50:35;6.43;;;2.47;;
76495;SDS011;65329;52.544;4.662;2023-11-21T12:53:03;5.07;;;2.58;;
76495;SDS011;65329;52.544;4.662;2023-11-21T12:55:39;4.47;;;2.58;;
76495;SDS011;65329;52.544;4.662;2023-11-21T12:58:07;4.95;;;2.33;;
76495;SDS011;65329;52.544;4.662;2023-11-21T13:00:42;8.23;;;2.88;;
76495;SDS011;65329;52.544;4.662;2023-11-21T13:03:12;6.45;;;2.63;;
76495;SDS011;65329;52.544;4.662;2023-11-21T13:05:48;4.00;;;2.50;;
76495;SDS011;65329;52.544;4.662;2023-11-21T13:08:21;4.60;;;2.17;;
76495;SDS011;65329;52.544;4.662;2023-11-21T13:10:51;3.88;;;2.03;;
76495;SDS011;65329;52.544;4.662;2023-11-21T13:13:22;4.93;;;2.28;;
76495;SDS011;65329;52.544;4.662;2023-11-21T13:15:55;5.82;;;2.83;;
76495;SDS011;65329;52.544;4.662;2023-11-21T13:18:23;5.03;;;2.47;;
76495;SDS011;65329;52.544;4.662;2023-11-21T13:20:51;4.20;;;2.25;;
76495;SDS011;65329;52.544;4.662;2023-11-21T13:23:19;5.18;;;2.40;;
76495;SDS011;65329;52.544;4.662;2023-11-21T13:25:46;6.03;;;3.05;;
76495;SDS011;65329;52.544;4.662;2023-11-21T13:28:23;5.65;;;2.70;;
76495;SDS011;65329;52.544;4.662;2023-11-21T13:30:53;4.72;;;2.67;;
76495;SDS011;65329;52.544;4.662;2023-11-21T13:33:19;4.45;;;2.67;;
76495;SDS011;65329;52.544;4.662;2023-11-21T13:35:48;6.60;;;2.55;;
76495;SDS011;65329;52.544;4.662;2023-11-21T13:38:18;5.38;;;2.95;;
76495;SDS011;65329;52.544;4.662;2023-11-21T13:40:49;5.63;;;2.40;;
76495;SDS011;65329;52.544;4.662;2023-11-21T13:43:22;4.38;;;2.10;;
76495;SDS011;65329;52.544;4.662;2023-11-21T13:45:53;7.03;;;3.10;;
76495;SDS011;65329;52.544;4.662;2023-11-21T13:48:43;6.57;;;3.65;;
76495;SDS011;65329;52.544;4.662;2023-11-21T13:51:17;7.35;;;3.78;;
76495;SDS011;65329;52.544;4.662;2023-11-21T13:53:45;8.00;;;3.78;;
76495;SDS011;65329;52.544;4.662;2023-11-21T13:56:14;9.02;;;4.13;;
76495;SDS011;65329;52.544;4.662;2023-11-21T13:58:46;5.13;;;3.33;;
76495;SDS011;65329;52.544;4.662;2023-11-21T14:01:23;6.15;;;3.50;;
76495;SDS011;65329;52.544;4.662;2023-11-21T14:04:00;8.60;;;3.42;;
76495;SDS011;65329;52.544;4.662;2023-11-21T14:06:47;7.80;;;3.88;;
76495;SDS011;65329;52.544;4.662;2023-11-21T14:09:16;7.15;;;4.13;;
76495;SDS011;65329;52.544;4.662;2023-11-21T14:11:52;7.72;;;4.32;;
76495;SDS011;65329;52.544;4.662;2023-11-21T14:14:21;5.38;;;3.22;;
76495;SDS011;65329;52.544;4.662;2023-11-21T14:16:48;6.38;;;3.78;;
76495;SDS011;65329;52.544;4.662;2023-11-21T14:19:16;8.35;;;4.95;;
76495;SDS011;65329;52.544;4.662;2023-11-21T14:21:47;8.65;;;4.97;;
76495;SDS011;65329;52.544;4.662;2023-11-21T14:24:15;8.40;;;3.80;;
76495;SDS011;65329;52.544;4.662;2023-11-21T14:26:45;7.93;;;4.63;;
76495;SDS011;65329;52.544;4.662;2023-11-21T14:29:13;7.47;;;4.53;;
76495;SDS011;65329;52.544;4.662;2023-11-21T14:31:47;6.57;;;4.07;;
76495;SDS011;65329;52.544;4.662;2023-11-21T14:34:14;5.75;;;4.05;;
76495;SDS011;65329;52.544;4.662;2023-11-21T14:36:46;8.35;;;3.67;;
76495;SDS011;65329;52.544;4.662;2023-11-21T14:39:16;4.05;;;2.88;;
76495;SDS011;65329;52.544;4.662;2023-11-21T14:42:10;5.80;;;3.40;;
76495;SDS011;65329;52.544;4.662;2023-11-21T14:44:36;8.00;;;4.00;;
76495;SDS011;65329;52.544;4.662;2023-11-21T14:47:08;6.03;;;3.17;;
76495;SDS011;65329;52.544;4.662;2023-11-21T14:49:42;7.38;;;4.70;;
76495;SDS011;65329;52.544;4.662;2023-11-21T14:52:19;4.80;;;3.45;;
76495;SDS011;65329;52.544;4.662;2023-11-21T14:55:01;6.68;;;3.70;;
76495;SDS011;65329;52.544;4.662;2023-11-21T14:57:48;7.07;;;3.92;;
76495;SDS011;65329;52.544;4.662;2023-11-21T15:00:18;4.97;;;3.33;;
76495;SDS011;65329;52.544;4.662;2023-11-21T15:03:01;7.30;;;3.03;;
76495;SDS011;65329;52.544;4.662;2023-11-21T15:05:30;6.43;;;3.72;;
76495;SDS011;65329;52.544;4.662;2023-11-21T15:07:57;6.55;;;3.65;;
76495;SDS011;65329;52.544;4.662;2023-11-21T15:10:34;5.50;;;3.33;;
76495;SDS011;65329;52.544;4.662;2023-11-21T15:13:16;5.03;;;3.30;;
76495;SDS011;65329;52.544;4.662;2023-11-21T15:15:42;5.18;;;3.42;;
76495;SDS011;65329;52.544;4.662;2023-11-21T15:18:09;4.38;;;3.38;;
76495;SDS011;65329;52.544;4.662;2023-11-21T15:20:42;6.88;;;3.30;;
76495;SDS011;65329;52.544;4.662;2023-11-21T15:23:09;5.15;;;3.03;;
76495;SDS011;65329;52.544;4.662;2023-11-21T15:25:39;6.82;;;3.20;;